Time;durP1;ratioP1;P1;durP2;ratioP2;P2;SDS_P1;SDS_P2;PMS_P1;PMS_P2;Temp;Humidity;BMP_temperature;BMP_pressure;BME280_temperature;BME280_humidity;BME280_pressure;Samples;Min_cycle;Max_cycle;Signal;HPM_P1;HPM_P2
2022/07/20 00:00:45;;;;;;;;;27.50;26.50;;;;;32.10;36.95;100926.28;2104072;28;47836;-65
2022/07/20 00:01:46;;;;;;;;;28.75;28.00;;;;;32.09;36.51;100917.19;2095348;28;47480;-61
2022/07/20 00:02:46;;;;;;;;;24.75;24.75;;;;;32.09;36.74;100911.69;2095087;28;47316;-65
2022/07/20 00:03:47;;;;;;;;;24.75;24.75;;;;;32.08;36.56;100911.88;2104429;28;47632;-66
2022/07/20 00:04:49;;;;;;;;;25.00;25.00;;;;;32.08;36.80;100914.63;2104226;28;47482;-66
2022/07/20 00:05:49;;;;;;;;;27.20;26.00;;;;;32.08;36.57;100914.63;2104151;28;47744;-65
2022/07/20 00:06:49;;;;;;;;;27.75;27.00;;;;;32.06;36.46;100923.03;2104297;28;47541;-66
2022/07/20 00:07:50;;;;;;;;;25.25;25.25;;;;;32.05;37.20;100932.28;2095222;28;47929;-62
2022/07/20 00:11:29;;;;;;;;;27.20;26.80;;;;;32.03;37.03;100926.13;2104091;28;47659;-64
2022/07/20 00:12:29;;;;;;;;;27.25;26.00;;;;;32.04;37.58;100930.59;2102750;28;47763;-64
2022/07/20 00:13:30;;;;;;;;;30.75;29.00;;;;;32.03;37.95;100925.25;2103909;28;47390;-68
2022/07/20 00:14:30;;;;;;;;;23.50;23.25;;;;;32.02;38.02;100923.53;2103993;28;48474;-65
2022/07/20 00:15:30;;;;;;;;;30.50;27.50;;;;;31.99;37.69;100924.72;2104208;28;47103;-66
2022/07/20 00:16:33;;;;;;;;;31.75;29.00;;;;;31.98;38.33;100925.75;2104150;28;47793;-64
2022/07/20 00:17:34;;;;;;;;;25.60;24.20;;;;;31.97;38.05;100912.19;2103877;28;47570;-66
2022/07/20 00:18:34;;;;;;;;;25.25;25.25;;;;;31.97;37.99;100917.69;2104095;28;47313;-65
2022/07/20 00:19:35;;;;;;;;;26.75;26.00;;;;;31.96;37.74;100921.44;2104373;28;47818;-66
2022/07/20 00:20:35;;;;;;;;;25.75;22.75;;;;;31.96;37.65;100926.94;2104031;28;47794;-64
2022/07/20 00:21:36;;;;;;;;;26.75;25.50;;;;;31.95;37.29;100948.03;2094364;28;47586;-63
2022/07/20 00:22:37;;;;;;;;;25.50;25.00;;;;;31.94;37.14;100959.19;2086419;28;48187;-66
2022/07/20 00:23:37;;;;;;;;;26.75;25.75;;;;;31.91;37.19;100968.63;2099106;28;47540;-66
2022/07/20 00:24:38;;;;;;;;;25.00;24.25;;;;;31.89;37.14;100978.91;2104284;28;47125;-66
2022/07/20 00:25:38;;;;;;;;;25.25;23.25;;;;;31.86;36.85;100991.06;2104627;27;47456;-65
2022/07/20 00:26:39;;;;;;;;;26.50;24.00;;;;;31.86;36.41;101003.94;2104036;28;47656;-65
2022/07/20 00:27:39;;;;;;;;;24.75;22.50;;;;;31.84;36.94;101015.06;2104100;28;47277;-62
2022/07/20 00:28:39;;;;;;;;;27.25;24.75;;;;;31.84;37.28;101034.28;2104062;28;47376;-65
2022/07/20 00:29:40;;;;;;;;;28.00;27.25;;;;;31.83;37.29;101034.44;2104023;28;47687;-63
2022/07/20 00:30:42;;;;;;;;;29.00;27.75;;;;;31.83;37.12;101042.69;2099755;28;47210;-65
2022/07/20 00:31:42;;;;;;;;;26.40;25.80;;;;;31.81;36.95;101059.31;2099704;28;47554;-63
2022/07/20 00:32:43;;;;;;;;;26.75;26.50;;;;;31.80;37.07;101060.34;2105663;28;47170;-66
2022/07/20 00:33:47;;;;;;;;;26.25;24.75;;;;;31.79;37.12;101075.09;2105579;28;46248;-64
2022/07/20 00:34:47;;;;;;;;;25.60;25.40;;;;;31.76;37.53;101058.97;2105368;28;47651;-65
2022/07/20 00:35:47;;;;;;;;;24.25;24.00;;;;;31.74;37.02;101073.84;2096580;28;47859;-66
2022/07/20 00:36:48;;;;;;;;;26.00;26.00;;;;;31.72;37.10;101084.94;2096349;28;47313;-67
2022/07/20 00:37:48;;;;;;;;;24.75;23.50;;;;;31.68;37.11;101078.06;2105335;28;47466;-64
2022/07/20 00:38:49;;;;;;;;;25.75;24.50;;;;;31.66;37.26;101069.16;2105747;28;47584;-60
2022/07/20 00:39:49;;;;;;;;;28.25;25.75;;;;;31.64;37.27;101062.97;2105005;28;47137;-64
2022/07/20 00:40:50;;;;;;;;;28.25;27.00;;;;;31.61;37.35;101066.88;2095973;28;45622;-65
2022/07/20 00:41:50;;;;;;;;;21.25;21.25;;;;;31.59;37.33;101057.94;2095653;28;47348;-64
2022/07/20 00:42:50;;;;;;;;;29.00;27.50;;;;;31.56;37.83;101041.81;2095816;28;48064;-66
2022/07/20 00:44:05;;;;;;;;;25.25;24.25;;;;;31.52;37.07;101029.44;2087212;28;47168;-63
2022/07/20 00:45:08;;;;;;;;;26.60;26.60;;;;;31.48;37.85;101022.53;2089363;28;47962;-58
2022/07/20 00:46:08;;;;;;;;;25.20;25.20;;;;;31.45;37.92;101019.28;2095770;28;47831;-63
2022/07/20 00:47:09;;;;;;;;;27.75;26.00;;;;;31.43;37.61;101021.31;2095774;28;46842;-66
2022/07/20 00:48:09;;;;;;;;;26.00;26.00;;;;;31.40;37.99;101024.41;2095703;28;45654;-64
2022/07/20 00:49:12;;;;;;;;;28.00;27.00;;;;;31.38;37.87;101023.66;2094781;28;48095;-64
2022/07/20 00:50:12;;;;;;;;;26.00;26.00;;;;;31.35;37.94;101013.88;2095748;28;47219;-64
2022/07/20 00:51:13;;;;;;;;;20.00;20.00;;;;;31.34;38.75;101013.03;2094875;28;47454;-66
2022/07/20 00:52:13;;;;;;;;;27.00;26.25;;;;;31.32;38.36;100993.13;2070818;28;47925;-64
2022/07/20 00:53:14;;;;;;;;;24.75;24.00;;;;;31.31;38.92;100982.31;2071060;28;47600;-65
2022/07/20 00:54:14;;;;;;;;;25.25;24.50;;;;;31.29;38.56;100973.41;2090456;28;46882;-62
2022/07/20 00:55:15;;;;;;;;;26.25;26.25;;;;;31.25;38.72;100970.13;2087719;28;48050;-68
2022/07/20 00:56:17;;;;;;;;;25.20;24.60;;;;;31.21;39.41;100962.38;2087653;28;47475;-62
2022/07/20 00:57:18;;;;;;;;;27.80;26.60;;;;;31.20;39.50;100961.50;2095867;28;47425;-66
2022/07/20 00:58:19;;;;;;;;;28.00;25.00;;;;;31.17;39.47;100953.59;2095975;28;47999;-67
2022/07/20 00:59:19;;;;;;;;;26.75;25.75;;;;;31.16;39.25;100957.34;2095937;28;47359;-64
2022/07/20 01:00:20;;;;;;;;;28.00;27.75;;;;;31.15;39.65;100954.78;2095792;28;47094;-67
2022/07/20 01:01:21;;;;;;;;;26.00;25.40;;;;;31.13;39.85;100954.03;2075908;28;46164;-66
2022/07/20 01:02:21;;;;;;;;;27.75;25.00;;;;;31.10;39.74;100960.72;2078972;28;47634;-66
2022/07/20 01:03:21;;;;;;;;;29.00;27.50;;;;;31.08;40.59;100957.28;2087730;28;47909;-65
2022/07/20 01:04:22;;;;;;;;;28.25;27.50;;;;;31.07;40.59;100949.22;2087636;28;47608;-63
2022/07/20 01:05:24;;;;;;;;;24.75;24.75;;;;;31.05;40.45;100933.81;2087546;28;46339;-66
2022/07/20 01:06:25;;;;;;;;;25.80;25.60;;;;;31.02;40.43;100923.16;2095530;28;47210;-66
2022/07/20 01:07:26;;;;;;;;;25.75;25.75;;;;;31.02;41.48;100927.78;2095206;28;47514;-66
2022/07/20 01:08:28;;;;;;;;;27.00;26.25;;;;;30.99;41.13;100920.72;2095915;28;47967;-64
2022/07/20 01:09:28;;;;;;;;;26.60;26.60;;;;;30.98;41.02;100923.63;2095898;28;47855;-64
2022/07/20 01:10:28;;;;;;;;;28.25;27.50;;;;;30.95;41.64;100908.38;2095544;28;47299;-65
2022/07/20 01:11:29;;;;;;;;;26.75;26.75;;;;;30.96;42.23;100917.44;2087270;28;47332;-64
2022/07/20 01:12:29;;;;;;;;;27.75;26.75;;;;;30.94;41.52;100930.47;2095736;28;47595;-67
2022/07/20 01:13:30;;;;;;;;;28.50;27.50;;;;;30.92;42.40;100930.63;2105398;28;47944;-67
2022/07/20 01:14:30;;;;;;;;;28.00;27.75;;;;;30.92;42.57;100940.72;2105366;28;47586;-66
2022/07/20 01:15:31;;;;;;;;;30.25;29.00;;;;;30.88;42.20;100942.94;2104642;28;47676;-60
2022/07/20 01:16:32;;;;;;;;;29.75;28.50;;;;;30.88;43.11;100948.41;2102489;28;46611;-65
2022/07/20 01:17:32;;;;;;;;;27.60;27.40;;;;;30.85;42.35;100942.38;2104981;28;46629;-67
2022/07/20 01:18:33;;;;;;;;;33.75;30.50;;;;;30.83;43.57;100947.16;2105214;28;47965;-66
2022/07/20 01:19:33;;;;;;;;;30.00;28.25;;;;;30.81;42.91;100938.22;2096496;28;47091;-66
2022/07/20 01:20:36;;;;;;;;;32.75;29.50;;;;;30.80;43.24;100939.25;2096183;28;47600;-62
2022/07/20 01:21:43;;;;;;;;;34.40;31.00;;;;;30.77;43.25;100934.97;2105205;28;47705;-65
2022/07/20 01:22:45;;;;;;;;;30.40;27.60;;;;;30.75;43.39;100926.03;2099462;28;47998;-67
2022/07/20 01:23:45;;;;;;;;;30.20;28.20;;;;;30.74;43.43;100922.41;2105190;28;48179;-66
2022/07/20 01:24:46;;;;;;;;;33.00;31.00;;;;;30.76;43.88;100927.75;2105470;28;46701;-63
2022/07/20 01:25:46;;;;;;;;;35.25;31.00;;;;;30.75;43.78;100935.13;2105469;27;47218;-65
2022/07/20 01:26:47;;;;;;;;;38.75;34.00;;;;;30.76;43.67;100935.97;2105622;28;45704;-63
2022/07/20 01:27:47;;;;;;;;;41.50;34.00;;;;;30.74;43.95;100924.28;2105233;28;47520;-64
2022/07/20 01:28:48;;;;;;;;;40.75;35.75;;;;;30.73;43.79;100908.88;2105065;28;47530;-67
2022/07/20 01:29:48;;;;;;;;;41.50;35.50;;;;;30.71;43.91;100898.09;2105071;28;47642;-65
2022/07/20 01:30:49;;;;;;;;;44.50;37.75;;;;;30.70;44.09;100909.19;2099343;28;48017;-64
2022/07/20 01:31:50;;;;;;;;;42.75;36.50;;;;;30.67;44.14;100899.44;2101064;28;47089;-66
2022/07/20 01:32:50;;;;;;;;;45.00;38.50;;;;;30.67;44.26;100904.03;2105383;28;47742;-62
2022/07/20 01:33:50;;;;;;;;;46.75;36.75;;;;;30.66;44.38;100905.94;2104990;28;46512;-66
2022/07/20 01:34:51;;;;;;;;;43.50;37.00;;;;;30.66;44.49;100892.22;2105073;28;48127;-67
2022/07/20 01:35:51;;;;;;;;;45.00;38.25;;;;;30.66;44.32;100897.72;2105498;28;45695;-64
2022/07/20 01:36:51;;;;;;;;;48.00;40.50;;;;;30.65;44.47;100892.41;2104846;28;47632;-65
2022/07/20 01:37:52;;;;;;;;;47.50;39.50;;;;;30.65;44.25;100906.09;2105143;28;48143;-62
2022/07/20 01:38:52;;;;;;;;;46.50;39.25;;;;;30.63;44.92;100894.44;2105304;28;47375;-67
2022/07/20 01:39:53;;;;;;;;;45.75;38.00;;;;;30.61;44.47;100901.91;2104961;28;47365;-69
2022/07/20 01:40:53;;;;;;;;;46.00;38.00;;;;;30.60;45.02;100908.41;2104825;28;47464;-68
2022/07/20 01:41:54;;;;;;;;;45.25;38.25;;;;;30.60;44.55;100905.66;2104765;28;47695;-67
2022/07/20 01:42:54;;;;;;;;;47.25;39.50;;;;;30.60;44.97;100916.59;2104770;28;47521;-64
2022/07/20 01:43:55;;;;;;;;;47.25;39.25;;;;;30.61;44.30;100912.84;2104994;28;47732;-67
2022/07/20 01:44:55;;;;;;;;;47.50;39.25;;;;;30.61;45.07;100912.84;2105150;28;47392;-63
2022/07/20 01:45:55;;;;;;;;;45.25;38.25;;;;;30.59;45.01;100906.69;2104665;28;47342;-66
2022/07/20 01:46:56;;;;;;;;;48.50;40.75;;;;;30.57;45.17;100908.72;2095267;28;47365;-61
2022/07/20 01:47:56;;;;;;;;;48.00;40.50;;;;;30.56;45.00;100905.13;2095544;28;47528;-65
2022/07/20 01:48:57;;;;;;;;;47.00;40.50;;;;;30.55;44.97;100902.53;2104946;28;47797;-66
2022/07/20 01:49:57;;;;;;;;;48.75;40.50;;;;;30.54;45.16;100909.03;2104761;28;47482;-66
2022/07/20 01:50:58;;;;;;;;;47.25;40.50;;;;;30.53;44.98;100915.53;2104322;28;47438;-67
2022/07/20 01:51:58;;;;;;;;;48.25;39.50;;;;;30.53;45.12;100926.50;2104747;28;47589;-64
2022/07/20 01:52:59;;;;;;;;;50.50;41.75;;;;;30.54;44.79;100936.44;2104697;28;47851;-67
2022/07/20 01:53:59;;;;;;;;;50.75;40.75;;;;;30.54;45.36;100952.88;2104556;28;47258;-67
2022/07/20 01:54:59;;;;;;;;;50.00;41.25;;;;;30.54;45.48;100950.13;2104549;28;47527;-67
2022/07/20 01:56:00;;;;;;;;;48.75;41.25;;;;;30.52;46.03;100952.16;2104489;28;47675;-63
2022/07/20 01:57:00;;;;;;;;;51.00;41.75;;;;;30.52;46.11;100958.50;2103824;28;47946;-66
2022/07/20 01:58:01;;;;;;;;;47.50;40.50;;;;;30.53;45.70;100954.75;2103359;28;48207;-60
2022/07/20 01:59:01;;;;;;;;;53.50;42.75;;;;;30.52;45.76;100946.69;2101246;28;47721;-65
2022/07/20 02:00:05;;;;;;;;;49.50;41.50;;;;;30.51;45.37;100945.84;2095823;28;47447;-68
2022/07/20 02:01:06;;;;;;;;;46.80;38.60;;;;;30.50;45.44;100935.03;2078161;28;47079;-62
2022/07/20 02:02:06;;;;;;;;;50.50;42.25;;;;;30.50;46.03;100941.38;2086583;28;47674;-66
2022/07/20 02:03:07;;;;;;;;;46.50;38.25;;;;;30.48;45.81;100946.13;2104930;28;47430;-61
2022/07/20 02:04:07;;;;;;;;;53.50;44.75;;;;;30.47;45.97;100960.84;2104692;28;47298;-65
2022/07/20 02:05:09;;;;;;;;;49.00;41.50;;;;;30.44;45.70;100978.44;2105065;28;48021;-67
2022/07/20 02:06:09;;;;;;;;;48.00;39.80;;;;;30.41;46.14;100994.34;2104649;28;47937;-65
2022/07/20 02:07:10;;;;;;;;;47.50;40.50;;;;;30.37;45.79;101004.75;2104598;28;47487;-68
2022/07/20 02:08:10;;;;;;;;;48.25;40.75;;;;;30.38;46.04;101011.94;2104860;28;47501;-65
2022/07/20 02:09:10;;;;;;;;;51.50;42.75;;;;;30.35;45.84;101019.56;2104701;28;47386;-67
2022/07/20 02:10:13;;;;;;;;;51.50;42.50;;;;;30.33;45.96;101029.81;2105109;28;45933;-62
2022/07/20 02:11:13;;;;;;;;;48.20;39.20;;;;;30.31;46.54;101040.94;2104655;28;48188;-63
2022/07/20 02:12:13;;;;;;;;;52.75;43.50;;;;;30.32;46.13;101056.34;2104581;28;47503;-67
2022/07/20 02:13:14;;;;;;;;;48.75;41.50;;;;;30.31;45.84;101049.16;2105016;28;47565;-61
2022/07/20 02:14:14;;;;;;;;;51.00;42.75;;;;;30.33;45.96;101043.53;2102912;28;47345;-64
2022/07/20 02:16:14;;;;;;;;;49.75;41.75;;;;;30.32;45.79;101030.84;2104636;28;47124;-67
2022/07/20 02:16:35;;;;;;;;;50.50;42.25;;;;;30.30;45.79;101020.06;2104666;28;47306;-63
2022/07/20 02:17:36;;;;;;;;;52.25;42.75;;;;;30.28;45.34;101010.28;2104706;28;47536;-67
2022/07/20 02:18:36;;;;;;;;;52.25;43.75;;;;;30.24;45.40;101001.50;2104601;28;47685;-64
2022/07/20 02:19:36;;;;;;;;;50.50;42.00;;;;;30.21;45.65;100996.31;2104164;28;48129;-68
2022/07/20 02:20:38;;;;;;;;;50.50;41.50;;;;;30.18;45.86;100994.75;2104572;28;47571;-64
2022/07/20 02:21:38;;;;;;;;;52.00;43.00;;;;;30.17;45.83;101005.88;2104527;28;47896;-65
2022/07/20 02:22:39;;;;;;;;;53.25;44.25;;;;;30.15;46.29;101000.56;2104766;28;47819;-67
2022/07/20 02:23:40;;;;;;;;;52.00;43.50;;;;;30.14;46.57;100985.13;2086785;28;48080;-64
2022/07/20 02:24:40;;;;;;;;;49.75;41.75;;;;;30.15;46.06;100983.25;2078645;28;47892;-65
2022/07/20 02:25:40;;;;;;;;;51.00;42.50;;;;;30.14;46.10;100971.44;2095969;28;47463;-66
2022/07/20 02:26:41;;;;;;;;;53.75;43.50;;;;;30.14;46.37;100973.34;2104120;28;47655;-62
2022/07/20 02:27:42;;;;;;;;;49.25;41.25;;;;;30.13;46.35;100985.31;2104821;28;46532;-66
2022/07/20 02:28:42;;;;;;;;;49.25;41.00;;;;;30.13;46.16;101007.19;2104822;28;47715;-64
2022/07/20 02:29:43;;;;;;;;;52.25;42.50;;;;;30.12;46.74;101025.50;2104663;28;46999;-63
2022/07/20 02:30:43;;;;;;;;;51.50;41.50;;;;;30.11;46.92;101042.03;2099653;28;48168;-66
2022/07/20 02:31:44;;;;;;;;;51.75;41.75;;;;;30.10;46.65;101049.41;2100020;28;47630;-65
2022/07/20 02:32:44;;;;;;;;;48.00;40.50;;;;;30.10;46.51;101043.91;2104119;28;47678;-65
2022/07/20 02:33:45;;;;;;;;;50.00;41.50;;;;;30.12;46.55;101041.91;2104634;28;47669;-67
2022/07/20 02:34:45;;;;;;;;;50.25;41.25;;;;;30.13;46.21;101040.03;2103835;28;48087;-67
2022/07/20 02:35:46;;;;;;;;;54.25;44.25;;;;;30.13;47.01;101038.16;2104141;28;47370;-64
2022/07/20 02:36:46;;;;;;;;;51.00;42.75;;;;;30.11;46.49;101039.31;2104699;28;47010;-64
2022/07/20 02:37:47;;;;;;;;;52.00;43.75;;;;;30.09;46.20;101035.88;2104619;28;47373;-68
2022/07/20 02:38:47;;;;;;;;;48.75;41.50;;;;;30.08;46.40;101036.88;2104390;28;47352;-66
2022/07/20 02:39:47;;;;;;;;;51.25;43.00;;;;;30.06;46.47;101034.31;2103679;28;47510;-66
2022/07/20 02:40:49;;;;;;;;;52.00;42.50;;;;;30.06;47.03;101033.44;2104756;28;47626;-62
2022/07/20 02:41:49;;;;;;;;;53.25;44.25;;;;;30.04;47.06;101035.44;2104644;28;47022;-62
2022/07/20 02:42:49;;;;;;;;;51.50;43.00;;;;;30.02;46.50;101029.25;2103849;28;47602;-66
2022/07/20 02:43:50;;;;;;;;;52.75;43.75;;;;;30.01;47.29;101041.22;2104586;28;47479;-66
2022/07/20 02:44:50;;;;;;;;;54.50;44.75;;;;;29.99;46.80;101038.63;2104705;28;47500;-64
2022/07/20 02:45:51;;;;;;;;;53.00;44.00;;;;;29.98;47.04;101042.34;2104581;28;47649;-67
2022/07/20 02:46:51;;;;;;;;;50.75;42.25;;;;;29.97;47.14;101034.31;2104534;28;47782;-63
2022/07/20 02:47:51;;;;;;;;;53.50;43.75;;;;;29.95;47.06;101039.94;2104204;28;47471;-67
2022/07/20 02:48:52;;;;;;;;;56.50;46.00;;;;;29.94;46.99;101046.41;2104531;28;47462;-67
2022/07/20 02:49:52;;;;;;;;;53.00;43.00;;;;;29.93;46.68;101063.84;2104274;28;47892;-64
2022/07/20 02:50:52;;;;;;;;;55.25;46.00;;;;;29.92;47.14;101072.22;2104334;28;47466;-66
2022/07/20 02:51:53;;;;;;;;;53.25;44.50;;;;;29.90;46.68;101064.16;2094814;28;47502;-67
2022/07/20 02:52:53;;;;;;;;;56.50;46.00;;;;;29.88;46.51;101066.19;2103108;28;47386;-66
2022/07/20 02:53:54;;;;;;;;;58.00;47.50;;;;;29.87;46.21;101067.22;2104193;28;47192;-67
2022/07/20 02:54:54;;;;;;;;;53.50;44.50;;;;;29.85;46.66;101061.00;2103996;28;47666;-62
2022/07/20 02:55:54;;;;;;;;;51.75;43.00;;;;;29.82;46.47;101064.91;2103818;28;47434;-66
2022/07/20 02:56:55;;;;;;;;;55.50;46.00;;;;;29.82;46.63;101070.38;2112781;27;46956;-65
2022/07/20 02:57:56;;;;;;;;;54.25;44.75;;;;;29.81;46.24;101068.66;2112182;27;47563;-66
2022/07/20 02:58:56;;;;;;;;;57.25;47.50;;;;;29.80;46.49;101077.00;2104595;28;47214;-63
2022/07/20 02:59:56;;;;;;;;;57.00;46.75;;;;;29.79;46.33;101067.94;2103855;28;47696;-67
2022/07/20 03:00:57;;;;;;;;;55.75;46.00;;;;;29.79;46.90;101081.63;2078187;28;48132;-63
2022/07/20 03:01:58;;;;;;;;;59.00;46.00;;;;;29.78;46.64;101090.84;2078400;28;47631;-65
2022/07/20 03:02:58;;;;;;;;;55.50;43.75;;;;;29.78;46.59;101090.84;2104263;28;47185;-64
2022/07/20 03:03:59;;;;;;;;;54.25;44.50;;;;;29.79;46.38;101108.13;2104732;28;47931;-64
2022/07/20 03:04:59;;;;;;;;;54.75;44.50;;;;;29.77;46.27;101123.81;2104648;28;47874;-65
2022/07/20 03:06:00;;;;;;;;;57.50;47.50;;;;;29.76;46.79;101133.03;2104506;28;48081;-68
2022/07/20 03:07:00;;;;;;;;;52.75;43.25;;;;;29.75;46.15;101143.13;2104894;28;47323;-67
2022/07/20 03:08:01;;;;;;;;;54.50;44.25;;;;;29.75;46.40;101154.06;2104456;28;47639;-68
2022/07/20 03:09:02;;;;;;;;;52.75;43.75;;;;;29.76;46.29;101158.53;2095738;28;47484;-64
2022/07/20 03:10:03;;;;;;;;;56.50;45.75;;;;;29.77;46.52;101153.91;2095534;28;47920;-68
2022/07/20 03:11:03;;;;;;;;;53.50;44.75;;;;;29.78;46.76;101172.06;2095375;28;47382;-67
2022/07/20 03:12:04;;;;;;;;;56.00;46.25;;;;;29.77;46.58;101170.34;2077981;28;47552;-66
2022/07/20 03:13:05;;;;;;;;;53.25;44.25;;;;;29.77;46.49;101164.84;2086498;28;47167;-67
2022/07/20 03:14:05;;;;;;;;;54.50;45.25;;;;;29.76;46.41;101160.41;2104271;28;47402;-66
2022/07/20 03:15:07;;;;;;;;;54.75;44.75;;;;;29.76;46.28;101154.94;2104413;28;47754;-66
2022/07/20 03:16:07;;;;;;;;;55.20;45.00;;;;;29.76;46.17;101154.94;2096210;28;47937;-64
2022/07/20 03:17:07;;;;;;;;;57.50;46.75;;;;;29.76;46.23;101149.47;2090049;28;46217;-65
2022/07/20 03:18:08;;;;;;;;;57.25;47.25;;;;;29.75;46.22;101150.47;2086858;28;47517;-62
2022/07/20 03:19:08;;;;;;;;;57.50;46.50;;;;;29.74;46.64;101154.22;2102326;28;47446;-63
2022/07/20 03:20:11;;;;;;;;;55.25;45.75;;;;;29.73;46.33;101160.66;2103448;28;47808;-67
2022/07/20 03:21:11;;;;;;;;;55.00;45.25;;;;;29.73;46.05;101168.88;2095752;28;47127;-64
2022/07/20 03:22:12;;;;;;;;;54.00;45.00;;;;;29.73;46.73;101169.78;2100828;28;47791;-66
2022/07/20 03:23:12;;;;;;;;;56.75;45.75;;;;;29.73;46.26;101164.28;2103935;28;48177;-66
2022/07/20 03:24:13;;;;;;;;;56.00;44.75;;;;;29.73;46.21;101157.94;2104310;28;47925;-67
2022/07/20 03:25:13;;;;;;;;;55.00;45.50;;;;;29.73;46.03;101160.66;2105290;27;47697;-65
2022/07/20 03:26:15;;;;;;;;;57.50;46.75;;;;;29.73;46.01;101157.94;2113354;27;46450;-67
2022/07/20 03:27:15;;;;;;;;;56.25;46.75;;;;;29.73;45.87;101158.81;2106319;27;47760;-68
2022/07/20 03:28:18;;;;;;;;;56.50;44.25;;;;;29.74;46.06;101162.44;2104750;28;48155;-62
2022/07/20 03:29:18;;;;;;;;;56.25;46.25;;;;;29.73;46.02;101160.66;2104731;28;47919;-61
2022/07/20 03:30:20;;;;;;;;;54.25;44.50;;;;;29.72;46.12;101168.00;2104217;28;47573;-67
2022/07/20 03:31:20;;;;;;;;;57.50;47.25;;;;;29.72;46.17;101157.06;2104008;28;48402;-65
2022/07/20 03:32:21;;;;;;;;;55.50;45.75;;;;;29.71;46.05;101157.22;2104140;28;47399;-65
2022/07/20 03:33:21;;;;;;;;;53.00;44.25;;;;;29.71;46.24;101160.81;2103929;28;47750;-61
2022/07/20 03:34:21;;;;;;;;;55.25;44.50;;;;;29.70;46.09;101159.09;2104086;28;47398;-66
2022/07/20 03:35:23;;;;;;;;;55.00;45.00;;;;;29.70;45.98;101153.63;2104092;28;47797;-66
2022/07/20 03:36:23;;;;;;;;;52.25;44.00;;;;;29.70;46.24;101148.16;2104214;28;47392;-65
2022/07/20 03:37:23;;;;;;;;;53.00;43.75;;;;;29.70;46.05;101148.16;2103713;28;47752;-65
2022/07/20 03:38:24;;;;;;;;;54.75;44.75;;;;;29.70;46.23;101144.56;2094367;28;47593;-63
2022/07/20 03:39:24;;;;;;;;;57.00;46.00;;;;;29.68;45.67;101150.19;2091255;28;47422;-65
2022/07/20 03:40:25;;;;;;;;;56.00;46.50;;;;;29.68;46.12;101152.06;2104431;28;47566;-67
2022/07/20 03:41:25;;;;;;;;;55.75;45.25;;;;;29.66;46.13;101157.66;2104397;28;47069;-65
2022/07/20 03:42:26;;;;;;;;;54.25;45.00;;;;;29.65;46.21;101155.94;2103739;28;47235;-67
2022/07/20 03:43:27;;;;;;;;;56.00;46.00;;;;;29.66;46.24;101156.81;2104128;28;47460;-66
2022/07/20 03:44:27;;;;;;;;;55.00;45.00;;;;;29.65;46.07;101152.34;2104293;28;48313;-64
2022/07/20 03:45:27;;;;;;;;;55.00;44.75;;;;;29.64;46.27;101151.50;2111975;27;47735;-62
2022/07/20 03:46:28;;;;;;;;;56.25;46.75;;;;;29.64;46.32;101154.22;2094512;28;47574;-62
2022/07/20 03:47:28;;;;;;;;;54.25;44.25;;;;;29.62;46.14;101147.19;2086473;28;46683;-67
2022/07/20 03:48:29;;;;;;;;;51.25;42.50;;;;;29.62;46.28;101149.91;2104103;28;47241;-65
2022/07/20 03:49:29;;;;;;;;;58.75;48.00;;;;;29.61;46.23;101156.41;2095099;28;47293;-66
2022/07/20 03:50:29;;;;;;;;;54.75;44.50;;;;;29.59;46.31;101168.31;2095162;28;47629;-65
2022/07/20 03:51:30;;;;;;;;;58.00;45.50;;;;;29.61;47.19;101164.59;2103851;28;47594;-66
2022/07/20 03:52:30;;;;;;;;;52.00;43.25;;;;;29.59;47.02;101171.06;2104339;28;47984;-64
2022/07/20 03:53:31;;;;;;;;;56.75;46.50;;;;;29.58;46.87;101177.53;2095075;28;47242;-65
2022/07/20 03:54:31;;;;;;;;;57.75;46.50;;;;;29.59;47.23;101189.34;2090498;28;47381;-63
2022/07/20 03:55:32;;;;;;;;;53.50;43.25;;;;;29.58;46.76;101193.94;2095489;28;47934;-67
2022/07/20 03:56:39;;;;;;;;;52.75;43.50;;;;;29.58;46.90;101190.34;2104260;28;47759;-66
2022/07/20 03:57:40;;;;;;;;;54.50;45.25;;;;;29.58;46.89;101198.56;2104082;28;48004;-66
2022/07/20 03:58:40;;;;;;;;;54.50;45.25;;;;;29.57;47.05;101196.81;2103805;28;47355;-64
2022/07/20 03:59:42;;;;;;;;;53.50;44.50;;;;;29.56;47.11;101203.31;2104344;28;47380;-62
2022/07/20 04:00:43;;;;;;;;;54.25;45.50;;;;;29.56;46.81;101200.56;2104224;28;48042;-65
2022/07/20 04:01:43;;;;;;;;;55.00;45.00;;;;;29.56;47.17;101214.25;2104212;28;47311;-62
2022/07/20 04:02:43;;;;;;;;;56.00;45.25;;;;;29.56;47.20;101223.31;2103976;28;47527;-65
2022/07/20 04:03:44;;;;;;;;;54.25;45.75;;;;;29.55;47.47;101223.47;2104122;28;47821;-63
2022/07/20 04:04:44;;;;;;;;;51.75;42.50;;;;;29.55;47.69;101229.78;2103221;28;47429;-65
2022/07/20 04:05:45;;;;;;;;;54.75;44.25;;;;;29.54;48.16;101247.22;2086641;28;46099;-67
2022/07/20 04:06:45;;;;;;;;;57.50;45.75;;;;;29.53;48.25;101245.50;2079337;28;47493;-63
2022/07/20 04:07:46;;;;;;;;;51.00;42.50;;;;;29.52;48.37;101243.75;2102957;28;47784;-63
2022/07/20 04:08:48;;;;;;;;;56.00;46.50;;;;;29.51;48.19;101242.03;2105215;28;47527;-65
2022/07/20 04:09:48;;;;;;;;;51.50;43.00;;;;;29.49;48.10;101235.84;2088121;28;48114;-65
2022/07/20 04:10:49;;;;;;;;;57.75;47.50;;;;;29.48;48.06;101225.94;2088127;28;47618;-67
2022/07/20 04:11:49;;;;;;;;;51.75;42.50;;;;;29.46;48.13;101219.69;2105456;28;47433;-66
2022/07/20 04:12:49;;;;;;;;;58.00;46.50;;;;;29.47;48.22;101212.38;2104616;28;47490;-65
2022/07/20 04:13:51;;;;;;;;;53.75;44.50;;;;;29.45;48.12;101204.28;2105501;28;46581;-65
2022/07/20 04:14:53;;;;;;;;;57.75;47.75;;;;;29.42;48.35;101200.97;2105369;28;47754;-65
2022/07/20 04:15:53;;;;;;;;;53.80;45.00;;;;;29.40;48.94;101198.38;2104170;28;47881;-64
2022/07/20 04:16:53;;;;;;;;;55.75;45.50;;;;;29.39;48.90;101198.53;2111919;27;47596;-67
2022/07/20 04:17:54;;;;;;;;;54.25;45.00;;;;;29.37;48.60;101201.41;2105690;28;48010;-65
2022/07/20 04:18:54;;;;;;;;;47.50;39.50;;;;;29.36;48.08;101191.50;2105360;28;46691;-63
2022/07/20 04:19:54;;;;;;;;;50.50;41.75;;;;;29.35;48.35;101188.88;2105319;28;47200;-66
2022/07/20 04:20:55;;;;;;;;;47.75;40.75;;;;;29.34;48.36;101192.63;2105657;28;48163;-61
2022/07/20 04:21:58;;;;;;;;;53.25;43.50;;;;;29.33;48.67;101186.28;2105421;28;47579;-64
2022/07/20 04:22:59;;;;;;;;;53.00;43.60;;;;;29.33;48.44;101188.16;2105387;28;47638;-65
2022/07/20 04:23:59;;;;;;;;;47.75;40.75;;;;;29.32;48.21;101181.81;2105546;28;47582;-66
2022/07/20 04:24:59;;;;;;;;;43.50;37.25;;;;;29.29;47.86;101172.03;2105211;28;47578;-68
2022/07/20 04:26:00;;;;;;;;;41.00;35.25;;;;;29.28;47.90;101164.00;2106205;27;47105;-61
2022/07/20 04:27:01;;;;;;;;;42.50;35.75;;;;;29.26;47.67;101161.41;2105374;28;47345;-66
2022/07/20 04:28:02;;;;;;;;;36.60;33.80;;;;;29.25;47.77;101146.00;2096581;28;47298;-66
2022/07/20 04:29:02;;;;;;;;;36.50;32.00;;;;;29.24;47.22;101137.97;2088086;28;47398;-62
2022/07/20 04:30:03;;;;;;;;;33.00;31.00;;;;;29.22;47.17;101140.84;2096172;28;47776;-64
2022/07/20 04:31:04;;;;;;;;;34.60;31.00;;;;;29.19;46.92;101140.25;2087923;28;46989;-66
2022/07/20 04:32:04;;;;;;;;;35.00;31.25;;;;;29.16;47.39;101140.53;2078752;28;47402;-65
2022/07/20 04:33:05;;;;;;;;;35.25;31.00;;;;;29.13;47.02;101132.63;2087429;28;46330;-62
2022/07/20 04:34:06;;;;;;;;;37.25;33.25;;;;;29.12;47.21;101133.63;2087492;28;47883;-67
2022/07/20 04:35:07;;;;;;;;;31.50;29.75;;;;;29.09;47.09;101129.28;2101571;28;46515;-63
2022/07/20 04:36:08;;;;;;;;;34.40;31.80;;;;;29.07;47.43;101135.91;2105625;28;48381;-66
2022/07/20 04:37:08;;;;;;;;;33.00;30.50;;;;;29.06;47.18;101131.47;2105235;28;47444;-63
2022/07/20 04:38:08;;;;;;;;;33.00;30.50;;;;;29.03;47.18;101127.16;2105484;28;47411;-64
2022/07/20 04:39:09;;;;;;;;;39.50;32.50;;;;;29.02;46.79;101139.09;2105327;28;47599;-65